Time;durP1;ratioP1;P1;durP2;ratioP2;P2;SDS_P1;SDS_P2;PMS_P1;PMS_P2;Temp;Humidity;BMP_temperature;BMP_pressure;BME280_temperature;BME280_humidity;BME280_pressure;Samples;Min_cycle;Max_cycle;Signal;HPM_P1;HPM_P2
2023/06/17 00:01:17;;;;;;;4.13;2.58;;;;;;;;;;5089666;28;20039;-83
2023/06/17 00:03:43;;;;;;;3.80;2.30;;;;;;;;;;5089373;28;20024;-83
2023/06/17 00:06:09;;;;;;;5.18;2.72;;;;;;;;;;5089437;28;20024;-83
2023/06/17 00:08:34;;;;;;;3.95;2.50;;;;;;;;;;5089292;28;20493;-83
2023/06/17 00:11:00;;;;;;;3.78;2.47;;;;;;;;;;5090834;28;20036;-83
2023/06/17 00:13:26;;;;;;;3.55;2.20;;;;;;;;;;5090709;28;20024;-82
2023/06/17 00:15:56;;;;;;;3.50;2.45;;;;;;;;;;5091380;28;20028;-83
2023/06/17 00:18:25;;;;;;;3.35;2.45;;;;;;;;;;5090677;28;20042;-83
2023/06/17 00:20:52;;;;;;;3.25;2.42;;;;;;;;;;5072522;28;20028;-83
2023/06/17 00:23:21;;;;;;;4.30;2.38;;;;;;;;;;5089855;28;20020;-82
2023/06/17 00:25:47;;;;;;;3.22;2.38;;;;;;;;;;5072958;28;20032;-82
2023/06/17 00:28:12;;;;;;;4.13;2.53;;;;;;;;;;5072059;28;20058;-83
2023/06/17 00:30:38;;;;;;;4.43;2.50;;;;;;;;;;5090283;28;20051;-83
2023/06/17 00:33:03;;;;;;;4.03;2.33;;;;;;;;;;5088859;28;20414;-82
2023/06/17 00:35:29;;;;;;;3.95;2.90;;;;;;;;;;5089088;28;20032;-84
2023/06/17 00:37:54;;;;;;;4.65;2.25;;;;;;;;;;5071944;28;20028;-82
2023/06/17 00:40:19;;;;;;;3.75;2.67;;;;;;;;;;5090448;28;20490;-84
2023/06/17 00:42:45;;;;;;;2.53;2.20;;;;;;;;;;5089823;28;20395;-83
2023/06/17 00:45:10;;;;;;;3.70;2.35;;;;;;;;;;5088952;28;20428;-84
2023/06/17 00:47:37;;;;;;;2.95;2.50;;;;;;;;;;5071347;28;20059;-85
2023/06/17 00:50:03;;;;;;;6.35;2.45;;;;;;;;;;5071828;28;20040;-85
2023/06/17 00:52:29;;;;;;;2.47;2.22;;;;;;;;;;5071649;28;20065;-85
2023/06/17 00:54:55;;;;;;;5.40;2.60;;;;;;;;;;5088852;28;20068;-85
2023/06/17 00:57:20;;;;;;;2.30;2.10;;;;;;;;;;5088707;28;20024;-85
2023/06/17 00:59:45;;;;;;;4.05;2.30;;;;;;;;;;5079678;28;20108;-85
2023/06/17 01:02:13;;;;;;;6.78;2.30;;;;;;;;;;5058411;28;20032;-83
2023/06/17 01:04:42;;;;;;;5.05;2.33;;;;;;;;;;5058167;28;20062;-83
2023/06/17 01:07:43;;;;;;;2.30;2.10;;;;;;;;;;5058021;28;20043;-83
2023/06/17 01:10:17;;;;;;;3.10;2.10;;;;;;;;;;5051879;28;20034;-83
2023/06/17 01:12:43;;;;;;;2.53;2.33;;;;;;;;;;5074803;28;20024;-83
2023/06/17 01:15:10;;;;;;;2.58;2.17;;;;;;;;;;5057944;28;20442;-81
2023/06/17 01:17:36;;;;;;;3.90;2.58;;;;;;;;;;5074784;28;20017;-83
2023/06/17 01:20:03;;;;;;;2.50;2.25;;;;;;;;;;5057719;28;20472;-83
2023/06/17 01:22:29;;;;;;;4.35;2.55;;;;;;;;;;5074486;28;20020;-83
2023/06/17 01:24:56;;;;;;;3.03;2.20;;;;;;;;;;5057879;28;20032;-83
2023/06/17 01:27:23;;;;;;;3.50;2.20;;;;;;;;;;5075523;28;20081;-83
2023/06/17 01:29:48;;;;;;;3.10;2.40;;;;;;;;;;5074549;28;20395;-83
2023/06/17 01:32:14;;;;;;;2.95;2.42;;;;;;;;;;5074594;28;20029;-84
2023/06/17 01:34:51;;;;;;;3.97;2.53;;;;;;;;;;5075185;28;20028;-83
2023/06/17 01:37:30;;;;;;;3.58;2.30;;;;;;;;;;5074745;28;20021;-83
2023/06/17 01:39:57;;;;;;;3.50;2.20;;;;;;;;;;5074133;28;20054;-82
2023/06/17 01:42:31;;;;;;;3.58;2.17;;;;;;;;;;5057351;28;20125;-82
2023/06/17 01:44:58;;;;;;;3.58;2.55;;;;;;;;;;5073981;28;20036;-83
2023/06/17 01:47:23;;;;;;;4.68;2.50;;;;;;;;;;5074776;28;20119;-83
2023/06/17 01:49:50;;;;;;;4.57;2.60;;;;;;;;;;5075040;28;20052;-83
2023/06/17 01:52:15;;;;;;;3.92;2.30;;;;;;;;;;5073708;28;20082;-83
2023/06/17 01:54:40;;;;;;;4.38;2.58;;;;;;;;;;5073726;28;20048;-83
2023/06/17 01:57:06;;;;;;;3.05;2.22;;;;;;;;;;5073610;28;20021;-82
2023/06/17 01:59:32;;;;;;;3.72;2.53;;;;;;;;;;5073939;28;20033;-83
2023/06/17 02:01:57;;;;;;;5.60;2.30;;;;;;;;;;5073623;28;20033;-83
2023/06/17 02:04:22;;;;;;;3.28;2.50;;;;;;;;;;5073511;28;20032;-83
2023/06/17 02:06:48;;;;;;;3.88;2.50;;;;;;;;;;5074926;28;20025;-83
2023/06/17 02:09:13;;;;;;;3.17;2.30;;;;;;;;;;5074652;28;20029;-83
2023/06/17 02:11:39;;;;;;;4.93;2.53;;;;;;;;;;5055802;28;20395;-82
2023/06/17 02:14:04;;;;;;;4.35;2.40;;;;;;;;;;5075405;28;20103;-83
2023/06/17 02:16:30;;;;;;;4.40;2.35;;;;;;;;;;5073261;28;20033;-82
2023/06/17 02:18:55;;;;;;;3.40;2.38;;;;;;;;;;5074941;28;20027;-82
2023/06/17 02:21:21;;;;;;;3.05;2.30;;;;;;;;;;5072994;28;20483;-82
2023/06/17 02:23:48;;;;;;;2.95;2.40;;;;;;;;;;5074451;28;20089;-82
2023/06/17 02:26:16;;;;;;;4.90;2.55;;;;;;;;;;5074608;28;20029;-82
2023/06/17 02:28:42;;;;;;;2.75;2.55;;;;;;;;;;5074268;28;20052;-82
2023/06/17 02:31:08;;;;;;;4.03;2.33;;;;;;;;;;5039876;28;20506;-82
2023/06/17 02:33:34;;;;;;;3.13;2.50;;;;;;;;;;5074208;28;20123;-82
2023/06/17 02:35:59;;;;;;;4.93;2.38;;;;;;;;;;5073040;28;20146;-82
2023/06/17 02:38:25;;;;;;;4.20;2.63;;;;;;;;;;5074105;28;20447;-82
2023/06/17 02:40:50;;;;;;;4.28;2.67;;;;;;;;;;5074230;28;20566;-82
2023/06/17 02:43:15;;;;;;;3.90;2.65;;;;;;;;;;5072705;28;20486;-83
2023/06/17 02:45:41;;;;;;;4.13;2.55;;;;;;;;;;5074057;28;20162;-83
2023/06/17 02:48:06;;;;;;;4.60;2.38;;;;;;;;;;5073634;28;20051;-83
2023/06/17 02:50:32;;;;;;;2.75;2.55;;;;;;;;;;5072992;28;20028;-83
2023/06/17 02:52:57;;;;;;;4.60;2.30;;;;;;;;;;5074466;28;20395;-84
2023/06/17 02:55:23;;;;;;;2.42;2.22;;;;;;;;;;5072417;28;20025;-83
2023/06/17 02:57:48;;;;;;;3.92;2.53;;;;;;;;;;5073023;28;20031;-83
2023/06/17 03:00:14;;;;;;;4.70;3.10;;;;;;;;;;5061954;28;20078;-84
2023/06/17 03:02:39;;;;;;;3.08;2.42;;;;;;;;;;5072577;28;20028;-84
2023/06/17 03:05:06;;;;;;;3.80;2.33;;;;;;;;;;5072370;28;20028;-84
2023/06/17 03:07:35;;;;;;;5.35;2.30;;;;;;;;;;5055752;28;20082;-84
2023/06/17 03:10:04;;;;;;;3.45;2.42;;;;;;;;;;5056870;28;20117;-83
2023/06/17 03:12:30;;;;;;;3.28;2.40;;;;;;;;;;5073728;28;20486;-83
2023/06/17 03:14:57;;;;;;;4.68;2.55;;;;;;;;;;5072065;28;20033;-83
2023/06/17 03:17:24;;;;;;;6.35;2.28;;;;;;;;;;5072045;28;20029;-83
2023/06/17 03:19:50;;;;;;;2.38;2.17;;;;;;;;;;5072189;28;20077;-83
2023/06/17 03:22:15;;;;;;;4.93;2.53;;;;;;;;;;5054815;28;20534;-83
2023/06/17 03:24:41;;;;;;;8.23;3.03;;;;;;;;;;5073427;28;20032;-83
2023/06/17 03:27:06;;;;;;;3.17;2.33;;;;;;;;;;5072060;28;20170;-84
2023/06/17 03:29:34;;;;;;;4.97;2.78;;;;;;;;;;5072209;28;20133;-82
2023/06/17 03:31:59;;;;;;;4.40;2.67;;;;;;;;;;5075545;28;20024;-84
2023/06/17 03:34:25;;;;;;;3.50;2.80;;;;;;;;;;5072073;28;20028;-84
2023/06/17 03:36:50;;;;;;;4.82;3.00;;;;;;;;;;5073439;28;20094;-83
2023/06/17 03:39:16;;;;;;;4.03;2.53;;;;;;;;;;5072367;28;20382;-83
2023/06/17 03:41:42;;;;;;;3.10;2.80;;;;;;;;;;5072118;28;20085;-83
2023/06/17 03:44:07;;;;;;;2.97;2.38;;;;;;;;;;5073079;28;20051;-83
2023/06/17 03:46:32;;;;;;;3.13;2.83;;;;;;;;;;5072371;28;20036;-83
2023/06/17 03:48:58;;;;;;;6.78;3.25;;;;;;;;;;5071271;28;20116;-84
2023/06/17 03:51:23;;;;;;;4.13;2.90;;;;;;;;;;5073681;28;20120;-84
2023/06/17 03:53:48;;;;;;;4.03;2.80;;;;;;;;;;5038682;28;20041;-83
2023/06/17 03:56:14;;;;;;;5.20;2.60;;;;;;;;;;5073046;28;20029;-84
2023/06/17 03:58:40;;;;;;;3.78;3.05;;;;;;;;;;5073624;28;20021;-84
2023/06/17 04:01:12;;;;;;;4.32;2.85;;;;;;;;;;5056430;28;20040;-83
2023/06/17 04:03:37;;;;;;;4.95;2.80;;;;;;;;;;5080233;28;20041;-84
2023/06/17 04:06:03;;;;;;;3.30;3.00;;;;;;;;;;5074269;28;20498;-82
2023/06/17 04:08:29;;;;;;;3.17;2.55;;;;;;;;;;5073006;28;20107;-84
2023/06/17 04:10:54;;;;;;;4.90;2.80;;;;;;;;;;5075363;28;20112;-84
2023/06/17 04:13:20;;;;;;;4.15;3.00;;;;;;;;;;5075218;28;20033;-80
2023/06/17 04:15:46;;;;;;;4.43;3.03;;;;;;;;;;5073662;28;20027;-81
2023/06/17 04:18:11;;;;;;;15.23;3.72;;;;;;;;;;5038489;28;20437;-82
2023/06/17 04:20:36;;;;;;;6.85;3.30;;;;;;;;;;5071864;28;20032;-83
2023/06/17 04:23:02;;;;;;;6.95;3.50;;;;;;;;;;5074956;28;20103;-84
2023/06/17 04:25:27;;;;;;;8.05;2.80;;;;;;;;;;5081472;28;20025;-85
2023/06/17 04:27:56;;;;;;;4.30;2.45;;;;;;;;;;5084041;28;20033;-84
2023/06/17 04:30:21;;;;;;;6.03;2.88;;;;;;;;;;5080729;28;20088;-84
2023/06/17 04:32:47;;;;;;;12.32;3.78;;;;;;;;;;5074018;28;20063;-80
2023/06/17 04:35:12;;;;;;;10.45;4.18;;;;;;;;;;5076304;28;20082;-81
2023/06/17 04:37:40;;;;;;;6.68;4.07;;;;;;;;;;5076405;28;20419;-82
2023/06/17 04:40:09;;;;;;;6.45;4.30;;;;;;;;;;5074786;28;20395;-82
2023/06/17 04:42:36;;;;;;;5.18;4.28;;;;;;;;;;5060728;28;20024;-82
2023/06/17 04:45:02;;;;;;;11.20;4.03;;;;;;;;;;5065502;28;20033;-82
2023/06/17 04:47:28;;;;;;;6.80;4.05;;;;;;;;;;5060896;28;20045;-83
2023/06/17 04:49:54;;;;;;;5.82;4.10;;;;;;;;;;5061962;28;20045;-86
2023/06/17 04:52:20;;;;;;;6.70;3.90;;;;;;;;;;5065560;28;20127;-85
2023/06/17 04:54:46;;;;;;;4.45;3.42;;;;;;;;;;5032380;28;20033;-86
2023/06/17 04:57:12;;;;;;;5.38;3.63;;;;;;;;;;5050650;28;20035;-86
2023/06/17 04:59:37;;;;;;;9.27;4.15;;;;;;;;;;5072923;28;20033;-85
2023/06/17 05:02:03;;;;;;;5.80;3.58;;;;;;;;;;5058411;28;20033;-84
2023/06/17 05:04:29;;;;;;;4.93;3.35;;;;;;;;;;5056813;28;20029;-82
2023/06/17 05:06:54;;;;;;;10.60;3.40;;;;;;;;;;5038116;28;20078;-83
2023/06/17 05:09:20;;;;;;;6.68;4.00;;;;;;;;;;5054961;28;20040;-82
2023/06/17 05:11:45;;;;;;;35.33;4.72;;;;;;;;;;5055925;28;20429;-82
2023/06/17 05:14:11;;;;;;;57.50;6.93;;;;;;;;;;5054539;28;20106;-82
2023/06/17 05:16:37;;;;;;;69.00;7.50;;;;;;;;;;5054773;28;20111;-82
2023/06/17 05:19:02;;;;;;;81.72;7.43;;;;;;;;;;5055301;28;20025;-80
2023/06/17 05:21:27;;;;;;;86.15;7.30;;;;;;;;;;5037917;28;20033;-81
2023/06/17 05:23:53;;;;;;;62.55;6.95;;;;;;;;;;5056220;28;20103;-82
2023/06/17 05:26:18;;;;;;;82.40;6.47;;;;;;;;;;5037938;28;20086;-82
2023/06/17 05:28:44;;;;;;;59.15;6.82;;;;;;;;;;5055710;28;20037;-85
2023/06/17 05:31:10;;;;;;;67.20;5.95;;;;;;;;;;5056213;28;20464;-84
2023/06/17 05:33:35;;;;;;;52.88;6.53;;;;;;;;;;5058379;28;20039;-83
2023/06/17 05:36:01;;;;;;;58.40;6.93;;;;;;;;;;5057079;28;20036;-84
2023/06/17 05:38:27;;;;;;;64.03;6.57;;;;;;;;;;5056263;28;20119;-84
2023/06/17 05:40:53;;;;;;;66.45;7.38;;;;;;;;;;5055581;28;20098;-83
2023/06/17 05:43:18;;;;;;;48.97;6.30;;;;;;;;;;5054632;28;20048;-86
2023/06/17 05:45:44;;;;;;;92.97;8.60;;;;;;;;;;5057199;28;20028;-87
2023/06/17 05:48:10;;;;;;;97.47;8.90;;;;;;;;;;5056241;28;20111;-86
2023/06/17 05:50:35;;;;;;;58.40;9.35;;;;;;;;;;5054456;28;20044;-84
2023/06/17 05:53:00;;;;;;;52.40;7.05;;;;;;;;;;5059079;28;20373;-82
2023/06/17 05:55:26;;;;;;;28.23;6.15;;;;;;;;;;5056227;28;20388;-81
2023/06/17 05:57:52;;;;;;;18.58;5.00;;;;;;;;;;5054154;28;20391;-81
2023/06/17 06:00:18;;;;;;;20.05;5.45;;;;;;;;;;5037347;28;20039;-80
2023/06/17 06:02:44;;;;;;;55.03;6.05;;;;;;;;;;5054093;28;20025;-81
2023/06/17 06:05:09;;;;;;;57.40;6.07;;;;;;;;;;5054330;28;20476;-81
2023/06/17 06:07:35;;;;;;;38.20;5.40;;;;;;;;;;5037002;28;20472;-80
2023/06/17 06:10:03;;;;;;;44.05;5.80;;;;;;;;;;5037216;28;20037;-79
2023/06/17 06:12:29;;;;;;;32.88;5.00;;;;;;;;;;5054870;28;20032;-83
2023/06/17 06:14:55;;;;;;;24.70;6.43;;;;;;;;;;5054788;28;20029;-80
2023/06/17 06:17:20;;;;;;;48.80;6.82;;;;;;;;;;5055163;28;20090;-81
2023/06/17 06:19:48;;;;;;;37.10;5.55;;;;;;;;;;5054727;28;20479;-83
2023/06/17 06:22:13;;;;;;;30.73;4.55;;;;;;;;;;5053655;28;20032;-80
2023/06/17 06:24:39;;;;;;;25.92;5.38;;;;;;;;;;5055011;28;20087;-81
2023/06/17 06:27:04;;;;;;;37.65;5.10;;;;;;;;;;5037538;28;20036;-81
2023/06/17 06:29:30;;;;;;;33.20;5.60;;;;;;;;;;5054817;28;20523;-81
2023/06/17 06:31:55;;;;;;;20.73;4.00;;;;;;;;;;5054866;28;20036;-79
2023/06/17 06:34:21;;;;;;;12.32;4.30;;;;;;;;;;5054840;28;20033;-83
2023/06/17 06:36:46;;;;;;;16.25;3.88;;;;;;;;;;5054960;28;20033;-80
2023/06/17 06:39:12;;;;;;;11.02;3.65;;;;;;;;;;5055607;28;20024;-79
2023/06/17 06:41:37;;;;;;;7.63;3.03;;;;;;;;;;5054813;28;20028;-79
2023/06/17 06:44:03;;;;;;;7.72;3.42;;;;;;;;;;5053841;28;20032;-79
2023/06/17 06:46:28;;;;;;;5.72;3.33;;;;;;;;;;5053485;28;20468;-81
2023/06/17 06:48:54;;;;;;;9.00;3.80;;;;;;;;;;5055232;28;20056;-80
2023/06/17 06:51:20;;;;;;;8.20;3.72;;;;;;;;;;5036818;28;20111;-81
2023/06/17 06:53:45;;;;;;;4.85;3.13;;;;;;;;;;5054301;28;20485;-81
2023/06/17 06:56:11;;;;;;;4.68;3.25;;;;;;;;;;5054576;28;20096;-82
2023/06/17 06:58:36;;;;;;;21.15;3.28;;;;;;;;;;5052903;28;20082;-82
2023/06/17 07:01:01;;;;;;;5.90;3.00;;;;;;;;;;5053352;28;20400;-81
2023/06/17 07:03:27;;;;;;;5.20;2.70;;;;;;;;;;5052728;28;20033;-83
2023/06/17 07:05:52;;;;;;;8.10;2.70;;;;;;;;;;5036067;28;20020;-82
2023/06/17 07:08:17;;;;;;;6.55;3.03;;;;;;;;;;5053764;28;20029;-82
2023/06/17 07:10:43;;;;;;;3.22;2.80;;;;;;;;;;5054639;28;20440;-81
2023/06/17 07:13:08;;;;;;;4.93;2.75;;;;;;;;;;5035843;28;20033;-81
2023/06/17 07:15:34;;;;;;;7.30;2.92;;;;;;;;;;5036676;28;20024;-81
2023/06/17 07:17:59;;;;;;;6.47;3.30;;;;;;;;;;5035793;28;20036;-81
2023/06/17 07:20:25;;;;;;;5.32;2.63;;;;;;;;;;5052856;28;20565;-80
2023/06/17 07:22:50;;;;;;;4.93;2.92;;;;;;;;;;5053939;28;20388;-78
2023/06/17 07:25:15;;;;;;;6.45;2.60;;;;;;;;;;5052744;28;20472;-83
2023/06/17 07:27:41;;;;;;;8.65;3.08;;;;;;;;;;5053475;28;20037;-80
2023/06/17 07:30:07;;;;;;;7.63;2.95;;;;;;;;;;5052235;28;20053;-79
2023/06/17 07:32:33;;;;;;;12.43;3.00;;;;;;;;;;5020457;28;20037;-81
2023/06/17 07:34:59;;;;;;;4.72;2.63;;;;;;;;;;5036057;28;20035;-81
2023/06/17 07:37:24;;;;;;;10.45;3.00;;;;;;;;;;5035706;28;20111;-80
2023/06/17 07:39:50;;;;;;;7.07;2.42;;;;;;;;;;5053591;28;20052;-81
2023/06/17 07:42:19;;;;;;;8.98;2.80;;;;;;;;;;5052402;28;20032;-80
2023/06/17 07:44:44;;;;;;;4.38;2.63;;;;;;;;;;5037084;28;20474;-81
2023/06/17 07:47:10;;;;;;;4.13;2.72;;;;;;;;;;5053070;28;20128;-82
2023/06/17 07:49:36;;;;;;;7.38;2.60;;;;;;;;;;5053770;28;20083;-82
2023/06/17 07:52:02;;;;;;;3.72;2.38;;;;;;;;;;5053084;28;20050;-82
2023/06/17 07:54:28;;;;;;;6.38;2.50;;;;;;;;;;5054566;28;20468;-79
2023/06/17 07:56:53;;;;;;;5.38;2.67;;;;;;;;;;5037098;28;20182;-78
2023/06/17 07:59:19;;;;;;;11.63;2.95;;;;;;;;;;5052639;28;20147;-79
2023/06/17 08:01:45;;;;;;;6.93;2.92;;;;;;;;;;5053844;28;20400;-82
2023/06/17 08:04:10;;;;;;;7.32;2.50;;;;;;;;;;5052165;28;20029;-85
2023/06/17 08:06:37;;;;;;;9.00;2.70;;;;;;;;;;5036310;28;20028;-82
2023/06/17 08:09:03;;;;;;;3.13;2.50;;;;;;;;;;5037073;28;20152;-85
2023/06/17 08:11:28;;;;;;;8.60;3.28;;;;;;;;;;5057833;28;20056;-83
2023/06/17 08:13:54;;;;;;;3.35;2.38;;;;;;;;;;5056501;28;20072;-83
2023/06/17 08:16:19;;;;;;;4.88;2.60;;;;;;;;;;5057548;28;20017;-83
2023/06/17 08:18:44;;;;;;;4.50;2.40;;;;;;;;;;5057402;28;20087;-83
2023/06/17 08:21:10;;;;;;;4.35;2.58;;;;;;;;;;5057194;28;20446;-82
2023/06/17 08:23:35;;;;;;;9.43;3.00;;;;;;;;;;5039401;28;20033;-83
2023/06/17 08:26:01;;;;;;;9.48;2.90;;;;;;;;;;5056258;28;20033;-83
2023/06/17 08:28:26;;;;;;;7.72;2.97;;;;;;;;;;5056570;28;20029;-83
2023/06/17 08:30:52;;;;;;;6.03;2.47;;;;;;;;;;5039597;28;20383;-82
2023/06/17 08:33:17;;;;;;;7.03;2.47;;;;;;;;;;5059923;28;20147;-83
2023/06/17 08:35:43;;;;;;;3.95;2.20;;;;;;;;;;5056864;28;20112;-82
2023/06/17 08:38:08;;;;;;;9.68;2.58;;;;;;;;;;5055656;28;20044;-82
2023/06/17 08:40:35;;;;;;;6.10;2.50;;;;;;;;;;5040402;28;20032;-83
2023/06/17 08:43:02;;;;;;;7.93;2.70;;;;;;;;;;5056641;28;20119;-83
2023/06/17 08:45:29;;;;;;;6.88;3.40;;;;;;;;;;5056165;28;20028;-83
2023/06/17 08:47:55;;;;;;;6.32;2.50;;;;;;;;;;5055464;28;20123;-84
2023/06/17 08:50:20;;;;;;;5.20;2.72;;;;;;;;;;5056148;28;20504;-83
2023/06/17 08:52:47;;;;;;;4.40;2.72;;;;;;;;;;5056062;28;20388;-81
2023/06/17 08:55:13;;;;;;;4.70;2.60;;;;;;;;;;5055720;28;20029;-81
2023/06/17 08:57:40;;;;;;;7.78;2.70;;;;;;;;;;5056607;28;20025;-84
2023/06/17 09:00:10;;;;;;;5.50;2.72;;;;;;;;;;5038444;28;20483;-80
2023/06/17 09:02:37;;;;;;;7.95;2.70;;;;;;;;;;5055070;28;20388;-82
2023/06/17 09:05:03;;;;;;;11.88;3.20;;;;;;;;;;5038141;28;20037;-82
2023/06/17 09:07:29;;;;;;;8.65;3.00;;;;;;;;;;5056214;28;20033;-83
2023/06/17 09:09:55;;;;;;;16.83;3.25;;;;;;;;;;5054807;28;20089;-84
2023/06/17 09:12:26;;;;;;;10.70;3.35;;;;;;;;;;5055006;28;20049;-83
2023/06/17 09:14:56;;;;;;;9.73;3.05;;;;;;;;;;5055201;28;20029;-83
2023/06/17 09:17:30;;;;;;;5.20;3.00;;;;;;;;;;5054934;28;20041;-84
2023/06/17 09:19:55;;;;;;;8.32;3.10;;;;;;;;;;5038093;28;20040;-80
2023/06/17 09:22:20;;;;;;;11.80;3.35;;;;;;;;;;5055288;28;20032;-93
2023/06/17 09:24:46;;;;;;;12.32;3.70;;;;;;;;;;5054798;28;20440;-81
2023/06/17 09:27:22;;;;;;;10.00;2.80;;;;;;;;;;5038018;28;20033;-80
2023/06/17 09:29:48;;;;;;;7.88;3.10;;;;;;;;;;5054597;28;20083;-79
2023/06/17 09:32:13;;;;;;;9.90;4.20;;;;;;;;;;5054868;28;20112;-79
2023/06/17 09:34:47;;;;;;;9.48;3.90;;;;;;;;;;5055729;28;20448;-81
2023/06/17 09:37:15;;;;;;;18.23;5.30;;;;;;;;;;5054400;28;20025;-80
2023/06/17 09:39:44;;;;;;;18.70;5.32;;;;;;;;;;5055853;28;20056;-79
2023/06/17 09:42:10;;;;;;;16.30;4.57;;;;;;;;;;5037520;28;20025;-78
2023/06/17 09:44:39;;;;;;;15.30;4.70;;;;;;;;;;5054181;28;20095;-79
2023/06/17 09:47:06;;;;;;;11.98;4.88;;;;;;;;;;5053582;28;20041;-82
2023/06/17 09:49:32;;;;;;;13.38;4.35;;;;;;;;;;5037393;28;20061;-82
2023/06/17 09:52:02;;;;;;;16.05;4.80;;;;;;;;;;5055607;28;20049;-81
2023/06/17 09:54:28;;;;;;;10.82;4.22;;;;;;;;;;5055542;28;20029;-79
2023/06/17 09:56:55;;;;;;;14.63;4.00;;;;;;;;;;5037077;28;20395;-80
2023/06/17 09:59:21;;;;;;;20.45;4.30;;;;;;;;;;5020982;28;20063;-79
2023/06/17 10:01:48;;;;;;;17.27;5.05;;;;;;;;;;5055559;28;20029;-79
2023/06/17 10:04:14;;;;;;;18.73;4.45;;;;;;;;;;5037551;28;20025;-79
2023/06/17 10:06:41;;;;;;;12.63;4.00;;;;;;;;;;5038022;28;20025;-79
2023/06/17 10:09:08;;;;;;;9.32;4.03;;;;;;;;;;5037209;28;20025;-79
2023/06/17 10:11:34;;;;;;;14.43;3.95;;;;;;;;;;5037479;28;20036;-80
2023/06/17 10:14:03;;;;;;;8.23;3.95;;;;;;;;;;5020713;28;20024;-80
2023/06/17 10:16:34;;;;;;;8.77;3.85;;;;;;;;;;5020381;28;20115;-81
2023/06/17 10:19:01;;;;;;;8.70;3.60;;;;;;;;;;5037131;28;20075;-80
2023/06/17 10:21:27;;;;;;;13.52;3.80;;;;;;;;;;5037486;28;20449;-81
2023/06/17 10:23:53;;;;;;;8.10;3.83;;;;;;;;;;5036831;28;20104;-79
2023/06/17 10:26:19;;;;;;;9.20;3.88;;;;;;;;;;5037044;28;20017;-80
2023/06/17 10:28:54;;;;;;;9.48;3.40;;;;;;;;;;5037271;28;20344;-79
2023/06/17 10:31:22;;;;;;;7.82;3.40;;;;;;;;;;5056303;28;20048;-80
2023/06/17 10:33:49;;;;;;;7.95;4.28;;;;;;;;;;5037351;28;20032;-80
2023/06/17 10:36:14;;;;;;;7.35;3.70;;;;;;;;;;5037207;28;20024;-80
2023/06/17 10:38:40;;;;;;;8.20;3.60;;;;;;;;;;5054988;28;20029;-80
2023/06/17 10:41:05;;;;;;;6.78;3.70;;;;;;;;;;5021319;28;20037;-81
2023/06/17 10:43:37;;;;;;;10.48;3.75;;;;;;;;;;5054941;28;20480;-80
2023/06/17 10:46:03;;;;;;;7.65;3.40;;;;;;;;;;5054989;28;20456;-82
2023/06/17 10:48:35;;;;;;;7.38;3.78;;;;;;;;;;5036803;28;20060;-82
2023/06/17 10:51:03;;;;;;;6.10;3.50;;;;;;;;;;5021285;28;20029;-80
2023/06/17 10:53:33;;;;;;;7.18;3.45;;;;;;;;;;5036602;28;20306;-81
2023/06/17 10:56:01;;;;;;;5.53;3.40;;;;;;;;;;5003960;28;20329;-81
2023/06/17 10:58:37;;;;;;;8.07;3.30;;;;;;;;;;5019554;28;20412;-82
2023/06/17 11:01:07;;;;;;;7.95;3.13;;;;;;;;;;5036193;28;20029;-82
2023/06/17 11:03:33;;;;;;;9.68;3.90;;;;;;;;;;5036419;28;20020;-80
2023/06/17 11:06:09;;;;;;;7.82;3.20;;;;;;;;;;5019506;28;20031;-81
2023/06/17 11:08:35;;;;;;;11.23;3.42;;;;;;;;;;5035929;28;20396;-81
2023/06/17 11:11:15;;;;;;;6.25;2.85;;;;;;;;;;5036465;28;20123;-81
2023/06/17 11:13:42;;;;;;;5.93;3.05;;;;;;;;;;5035972;28;20078;-81
2023/06/17 11:16:07;;;;;;;8.65;3.55;;;;;;;;;;5019313;28;20036;-81
2023/06/17 11:18:41;;;;;;;5.03;3.05;;;;;;;;;;5054444;28;20037;-81
2023/06/17 11:21:07;;;;;;;4.22;3.13;;;;;;;;;;5019550;28;20029;-81
2023/06/17 11:23:33;;;;;;;7.50;3.05;;;;;;;;;;5019346;28;20037;-81
2023/06/17 11:26:00;;;;;;;4.97;3.10;;;;;;;;;;5036460;28;20108;-81
2023/06/17 11:28:25;;;;;;;4.88;2.83;;;;;;;;;;5053824;28;20381;-81
2023/06/17 11:30:51;;;;;;;6.15;2.80;;;;;;;;;;5019129;28;20115;-81
2023/06/17 11:33:20;;;;;;;4.40;2.80;;;;;;;;;;5035701;28;20091;-80
2023/06/17 11:35:47;;;;;;;4.90;2.78;;;;;;;;;;5035751;28;20455;-80
2023/06/17 11:38:12;;;;;;;5.30;2.92;;;;;;;;;;5053347;28;20017;-79
2023/06/17 11:40:41;;;;;;;7.00;2.85;;;;;;;;;;5036218;28;20033;-80
2023/06/17 11:43:07;;;;;;;7.15;2.83;;;;;;;;;;5035928;28;20028;-80
2023/06/17 11:45:33;;;;;;;8.75;3.03;;;;;;;;;;5019227;28;20029;-80
2023/06/17 11:47:58;;;;;;;4.68;2.80;;;;;;;;;;5035588;28;20487;-80
2023/06/17 11:50:29;;;;;;;6.07;2.75;;;;;;;;;;5037050;28;20062;-80
2023/06/17 11:52:56;;;;;;;5.85;3.03;;;;;;;;;;5016106;28;20030;-80
2023/06/17 11:55:35;;;;;;;2.90;2.60;;;;;;;;;;5015633;28;20037;-79
2023/06/17 11:58:02;;;;;;;3.05;2.75;;;;;;;;;;5015755;28;20036;-80
2023/06/17 12:00:28;;;;;;;4.10;2.60;;;;;;;;;;5015875;28;20479;-80
2023/06/17 12:02:57;;;;;;;8.55;2.75;;;;;;;;;;5015870;28;20052;-81
2023/06/17 12:05:29;;;;;;;4.05;2.72;;;;;;;;;;5015724;28;20108;-79
2023/06/17 12:08:01;;;;;;;6.30;2.60;;;;;;;;;;4999231;28;20033;-80
2023/06/17 12:10:27;;;;;;;11.18;3.03;;;;;;;;;;5033235;28;20421;-79
2023/06/17 12:12:59;;;;;;;13.10;3.47;;;;;;;;;;5015677;28;20034;-80
2023/06/17 12:15:28;;;;;;;7.07;3.10;;;;;;;;;;4999523;28;20025;-79
2023/06/17 12:17:54;;;;;;;7.90;3.40;;;;;;;;;;5033403;28;20025;-79
2023/06/17 12:20:20;;;;;;;5.50;3.15;;;;;;;;;;5015642;28;20083;-79
2023/06/17 12:22:47;;;;;;;9.10;2.97;;;;;;;;;;5015435;28;20101;-79
2023/06/17 12:25:13;;;;;;;5.78;3.22;;;;;;;;;;5015597;28;20021;-79
2023/06/17 12:27:40;;;;;;;8.57;3.67;;;;;;;;;;5015220;28;20025;-79
2023/06/17 12:30:06;;;;;;;12.63;3.00;;;;;;;;;;5015268;28;20053;-79
2023/06/17 12:32:31;;;;;;;6.32;3.13;;;;;;;;;;5032840;28;20044;-79
2023/06/17 12:34:58;;;;;;;4.07;2.70;;;;;;;;;;5015392;28;20025;-79
2023/06/17 12:37:27;;;;;;;15.32;3.20;;;;;;;;;;4999225;28;20082;-80
2023/06/17 12:40:03;;;;;;;8.55;2.70;;;;;;;;;;5015314;28;20049;-79
2023/06/17 12:42:28;;;;;;;10.07;2.88;;;;;;;;;;5015209;28;20048;-79
2023/06/17 12:44:53;;;;;;;6.75;2.78;;;;;;;;;;5015236;28;20480;-79
2023/06/17 12:47:19;;;;;;;7.22;2.83;;;;;;;;;;5033126;28;20025;-80
2023/06/17 12:49:45;;;;;;;4.38;2.92;;;;;;;;;;5015244;28;20496;-80
2023/06/17 12:52:10;;;;;;;4.93;2.53;;;;;;;;;;4998772;28;20029;-80
2023/06/17 12:54:36;;;;;;;5.65;2.90;;;;;;;;;;4998852;28;20057;-79
2023/06/17 12:57:03;;;;;;;5.60;2.80;;;;;;;;;;5002507;28;20034;-79
2023/06/17 12:59:29;;;;;;;6.50;3.25;;;;;;;;;;5019216;28;20021;-79
2023/06/17 13:01:54;;;;;;;5.68;3.05;;;;;;;;;;5036963;28;20029;-78
2023/06/17 13:04:20;;;;;;;3.40;2.25;;;;;;;;;;5036857;28;20040;-79
2023/06/17 13:06:45;;;;;;;4.07;2.58;;;;;;;;;;5036339;28;20029;-79
2023/06/17 13:09:12;;;;;;;4.88;2.60;;;;;;;;;;5036402;28;20102;-79
2023/06/17 13:11:37;;;;;;;4.47;2.28;;;;;;;;;;5036408;28;20112;-79
2023/06/17 13:14:03;;;;;;;4.13;2.33;;;;;;;;;;5036704;28;20507;-79
2023/06/17 13:16:29;;;;;;;3.75;2.47;;;;;;;;;;5018746;28;20480;-78
2023/06/17 13:18:56;;;;;;;3.95;2.35;;;;;;;;;;5036805;28;20040;-78
2023/06/17 13:21:22;;;;;;;4.22;2.63;;;;;;;;;;5035925;28;20473;-78
2023/06/17 13:23:48;;;;;;;4.07;2.85;;;;;;;;;;5018415;28;20468;-78
2023/06/17 13:26:13;;;;;;;3.65;2.67;;;;;;;;;;5036471;28;20025;-78
2023/06/17 13:28:39;;;;;;;3.30;2.50;;;;;;;;;;5035904;28;20026;-78
2023/06/17 13:31:04;;;;;;;2.78;2.28;;;;;;;;;;5001636;28;20116;-78
2023/06/17 13:33:30;;;;;;;5.07;2.10;;;;;;;;;;5018177;28;20029;-78
2023/06/17 13:35:56;;;;;;;3.20;2.45;;;;;;;;;;5017991;28;20103;-77
2023/06/17 13:38:21;;;;;;;3.38;2.50;;;;;;;;;;5001600;28;20420;-78
2023/06/17 13:40:47;;;;;;;4.45;2.70;;;;;;;;;;5017671;28;20044;-78
2023/06/17 13:43:13;;;;;;;5.10;2.80;;;;;;;;;;5018453;28;20033;-78
2023/06/17 13:45:38;;;;;;;3.92;2.65;;;;;;;;;;5035505;28;20036;-78
2023/06/17 13:48:04;;;;;;;6.43;2.70;;;;;;;;;;5035550;28;20037;-78
2023/06/17 13:50:30;;;;;;;4.20;2.17;;;;;;;;;;5034489;28;20073;-78
2023/06/17 13:52:58;;;;;;;4.47;2.65;;;;;;;;;;5037385;28;20087;-79
2023/06/17 13:55:24;;;;;;;2.97;2.42;;;;;;;;;;5038184;28;20410;-79
2023/06/17 13:57:50;;;;;;;3.22;2.35;;;;;;;;;;5037364;28;20021;-78
2023/06/17 14:00:16;;;;;;;2.83;2.35;;;;;;;;;;5037283;28;20464;-79
2023/06/17 14:02:42;;;;;;;3.53;2.58;;;;;;;;;;5054982;28;20040;-78
2023/06/17 14:05:08;;;;;;;7.05;2.40;;;;;;;;;;5020948;28;20551;-79
2023/06/17 14:07:34;;;;;;;4.78;2.33;;;;;;;;;;5037300;28;20079;-79
2023/06/17 14:10:00;;;;;;;4.90;2.58;;;;;;;;;;5037583;28;20020;-78
2023/06/17 14:12:26;;;;;;;5.82;2.83;;;;;;;;;;5037794;28;20029;-78
2023/06/17 14:14:53;;;;;;;3.53;2.70;;;;;;;;;;5037446;28;20033;-79
2023/06/17 14:17:19;;;;;;;5.60;2.60;;;;;;;;;;5021021;28;20029;-79
2023/06/17 14:19:44;;;;;;;5.20;2.33;;;;;;;;;;5037367;28;20044;-78
2023/06/17 14:22:09;;;;;;;5.63;2.50;;;;;;;;;;5055199;28;20032;-78
2023/06/17 14:24:37;;;;;;;3.92;2.50;;;;;;;;;;5037349;28;20033;-78
2023/06/17 14:27:21;;;;;;;3.00;2.50;;;;;;;;;;5037135;28;20025;-78
2023/06/17 14:29:46;;;;;;;3.28;2.78;;;;;;;;;;5036611;28;20033;-78
2023/06/17 14:32:12;;;;;;;5.30;2.63;;;;;;;;;;5054757;28;20059;-78
2023/06/17 14:34:37;;;;;;;6.85;2.22;;;;;;;;;;5037009;28;20056;-79
2023/06/17 14:37:03;;;;;;;5.25;2.63;;;;;;;;;;5054682;28;20025;-78